PWSweather.com
Personal Weather Stations
Station Observations
719732
Ponferrada, PonferradaES 24411

PonferradaPonferradaES 24411

Lat: 42.5728, Lon: -6.6425

Elevation: 1676

Station Type: PCE-FWS 20 con garita Ambient Weather SRS100LX

www.meteo.spyfly.es

High Low Average
Temperature 64.2°F17.9°C 34.9°F1.6°C 48.2°F9.0°C
Dew Point 46.4°F8.0°C 33.6°F0.9°C 40.7°F4.8°C
Winds 17.4 mph 28.0 kmh Calm Calm 4.0 mph S6.4 kmh S
Wind Gusts 25.9 mph41.7 kmh -- 8.0 mph12.9 kmh
Humidity 99% 44% 77%
Pressure 30.37 in1028.4 mb 30.21 in1023.0 mb -
Precipitation 0.00 in0.0 mm - -
Hour Temp Dew Point Humidity Winds Wind Gusts Pressure Precip Precip Rate Daily Precip Total
12:00 AM 46.0°F7.8°C 39.9°F4.4°C 79% 1.6 mph N2.6 kmh N 2.2 mph3.5 kmh 30.37 in1028.4 mb 0.00 in0.0 mm 0.00 in0.0 mm 0.00 in0.0 mm
12:05 AM 45.5°F7.5°C 39.7°F4.3°C 80% Calm Calm 2.2 mph3.5 kmh 30.37 in1028.4 mb 0.00 in0.0 mm 0.00 in0.0 mm 0.00 in0.0 mm
12:10 AM 45.1°F7.3°C 39.3°F4.1°C 80% 0.7 mph N1.1 kmh N 2.2 mph3.5 kmh 30.37 in1028.4 mb 0.00 in0.0 mm 0.00 in0.0 mm 0.00 in0.0 mm
12:15 AM 44.8°F7.1°C 39.3°F4.1°C 81% Calm Calm 2.2 mph3.5 kmh 30.37 in1028.4 mb 0.00 in0.0 mm 0.00 in0.0 mm 0.00 in0.0 mm
12:20 AM 44.6°F7.0°C 39.1°F3.9°C 81% Calm Calm 2.2 mph3.5 kmh 30.37 in1028.4 mb 0.00 in0.0 mm 0.00 in0.0 mm 0.00 in0.0 mm
12:25 AM 44.6°F7.0°C 39.1°F3.9°C 81% Calm Calm 1.6 mph2.6 kmh 30.37 in1028.4 mb 0.00 in0.0 mm 0.00 in0.0 mm 0.00 in0.0 mm
12:30 AM 44.6°F7.0°C 39.5°F4.2°C 82% 0.7 mph NE1.1 kmh NE 2.2 mph3.5 kmh 30.36 in1028.1 mb 0.00 in0.0 mm 0.00 in0.0 mm 0.00 in0.0 mm
12:35 AM 44.6°F7.0°C 39.5°F4.2°C 82% 0.7 mph N1.1 kmh N 2.2 mph3.5 kmh 30.36 in1028.1 mb 0.00 in0.0 mm 0.00 in0.0 mm 0.00 in0.0 mm
12:40 AM 44.6°F7.0°C 39.5°F4.2°C 82% Calm Calm 2.2 mph3.5 kmh 30.37 in1028.4 mb 0.00 in0.0 mm 0.00 in0.0 mm 0.00 in0.0 mm
12:45 AM 44.4°F6.9°C 39.6°F4.2°C 83% Calm Calm 1.6 mph2.6 kmh 30.36 in1028.1 mb 0.00 in0.0 mm 0.00 in0.0 mm 0.00 in0.0 mm
12:50 AM 44.1°F6.7°C 39.2°F4.0°C 83% 2.2 mph N3.5 kmh N 3.1 mph5.0 kmh 30.37 in1028.4 mb 0.00 in0.0 mm 0.00 in0.0 mm 0.00 in0.0 mm
12:55 AM 43.7°F6.5°C 38.9°F3.8°C 83% 1.6 mph NE2.6 kmh NE 3.1 mph5.0 kmh 30.37 in1028.4 mb 0.00 in0.0 mm 0.00 in0.0 mm 0.00 in0.0 mm
01:00 AM 43.5°F6.4°C 38.7°F3.7°C 83% 0.7 mph E1.1 kmh E 3.1 mph5.0 kmh 30.37 in1028.4 mb 0.00 in0.0 mm 0.00 in0.0 mm 0.00 in0.0 mm
01:05 AM 43.7°F6.5°C 38.9°F3.8°C 83% Calm Calm 2.2 mph3.5 kmh 30.36 in1028.1 mb 0.00 in0.0 mm 0.00 in0.0 mm 0.00 in0.0 mm
01:10 AM 43.5°F6.4°C 38.7°F3.7°C 83% 0.7 mph N1.1 kmh N 1.6 mph2.6 kmh 30.36 in1028.1 mb 0.00 in0.0 mm 0.00 in0.0 mm 0.00 in0.0 mm
01:15 AM 43.3°F6.3°C 38.5°F3.6°C 83% 0.7 mph N1.1 kmh N 1.6 mph2.6 kmh 30.36 in1028.1 mb 0.00 in0.0 mm 0.00 in0.0 mm 0.00 in0.0 mm
01:20 AM 43.0°F6.1°C 38.2°F3.4°C 83% 0.7 mph N1.1 kmh N 1.6 mph2.6 kmh 30.36 in1028.1 mb 0.00 in0.0 mm 0.00 in0.0 mm 0.00 in0.0 mm
01:25 AM 42.8°F6.0°C 38.3°F3.5°C 84% 0.7 mph NE1.1 kmh NE 1.6 mph2.6 kmh 30.36 in1028.1 mb 0.00 in0.0 mm 0.00 in0.0 mm 0.00 in0.0 mm
01:30 AM 42.8°F6.0°C 38.3°F3.5°C 84% 1.6 mph E2.6 kmh E 2.2 mph3.5 kmh 30.36 in1028.1 mb 0.00 in0.0 mm 0.00 in0.0 mm 0.00 in0.0 mm
01:35 AM 42.8°F6.0°C 38.3°F3.5°C 84% 1.6 mph ESE2.6 kmh ESE 2.2 mph3.5 kmh 30.36 in1028.1 mb 0.00 in0.0 mm 0.00 in0.0 mm 0.00 in0.0 mm
01:40 AM 42.8°F6.0°C 38.6°F3.7°C 85% 0.7 mph SE1.1 kmh SE 2.2 mph3.5 kmh 30.35 in1027.8 mb 0.00 in0.0 mm 0.00 in0.0 mm 0.00 in0.0 mm
01:45 AM 42.8°F6.0°C 38.6°F3.7°C 85% Calm Calm 2.2 mph3.5 kmh 30.36 in1028.1 mb 0.00 in0.0 mm 0.00 in0.0 mm 0.00 in0.0 mm
01:50 AM 42.6°F5.9°C 38.7°F3.7°C 86% Calm Calm 1.6 mph2.6 kmh 30.36 in1028.1 mb 0.00 in0.0 mm 0.00 in0.0 mm 0.00 in0.0 mm
01:55 AM 42.1°F5.6°C 38.2°F3.4°C 86% Calm Calm 1.6 mph2.6 kmh 30.35 in1027.8 mb 0.00 in0.0 mm 0.00 in0.0 mm 0.00 in0.0 mm
02:00 AM 41.7°F5.4°C 37.8°F3.2°C 86% Calm Calm -- 30.35 in1027.8 mb 0.00 in0.0 mm 0.00 in0.0 mm 0.00 in0.0 mm
02:05 AM 41.7°F5.4°C 37.8°F3.2°C 86% Calm Calm -- 30.35 in1027.8 mb 0.00 in0.0 mm 0.00 in0.0 mm 0.00 in0.0 mm
02:10 AM 41.4°F5.2°C 37.8°F3.2°C 87% 0.7 mph S1.1 kmh S 2.2 mph3.5 kmh 30.35 in1027.8 mb 0.00 in0.0 mm 0.00 in0.0 mm 0.00 in0.0 mm
02:15 AM 41.5°F5.3°C 38.3°F3.5°C 88% 0.7 mph S1.1 kmh S 2.2 mph3.5 kmh 30.35 in1027.8 mb 0.00 in0.0 mm 0.00 in0.0 mm 0.00 in0.0 mm
02:20 AM 41.5°F5.3°C 38.3°F3.5°C 88% 1.6 mph ESE2.6 kmh ESE 2.2 mph3.5 kmh 30.35 in1027.8 mb 0.00 in0.0 mm 0.00 in0.0 mm 0.00 in0.0 mm
02:25 AM 41.2°F5.1°C 37.9°F3.3°C 88% 0.7 mph NE1.1 kmh NE 2.2 mph3.5 kmh 30.36 in1028.1 mb 0.00 in0.0 mm 0.00 in0.0 mm 0.00 in0.0 mm
02:30 AM 41.0°F5.0°C 37.7°F3.2°C 88% Calm Calm 1.6 mph2.6 kmh 30.35 in1027.8 mb 0.00 in0.0 mm 0.00 in0.0 mm 0.00 in0.0 mm
02:35 AM 40.8°F4.9°C 37.8°F3.2°C 89% Calm Calm 1.6 mph2.6 kmh 30.35 in1027.8 mb 0.00 in0.0 mm 0.00 in0.0 mm 0.00 in0.0 mm
02:40 AM 40.5°F4.7°C 37.5°F3.1°C 89% Calm Calm 1.6 mph2.6 kmh 30.35 in1027.8 mb 0.00 in0.0 mm 0.00 in0.0 mm 0.00 in0.0 mm
02:45 AM 40.1°F4.5°C 37.4°F3.0°C 90% Calm Calm 1.6 mph2.6 kmh 30.35 in1027.8 mb 0.00 in0.0 mm 0.00 in0.0 mm 0.00 in0.0 mm
02:50 AM 39.9°F4.4°C 37.2°F2.9°C 90% Calm Calm -- 30.35 in1027.8 mb 0.00 in0.0 mm 0.00 in0.0 mm 0.00 in0.0 mm
02:55 AM 39.7°F4.3°C 37.1°F2.8°C 90% Calm Calm -- 30.35 in1027.8 mb 0.00 in0.0 mm 0.00 in0.0 mm 0.00 in0.0 mm
03:00 AM 39.6°F4.2°C 37.2°F2.9°C 91% Calm Calm 1.6 mph2.6 kmh 30.35 in1027.8 mb 0.00 in0.0 mm 0.00 in0.0 mm 0.00 in0.0 mm
03:05 AM 39.6°F4.2°C 37.2°F2.9°C 91% 1.6 mph NE2.6 kmh NE 2.2 mph3.5 kmh 30.35 in1027.8 mb 0.00 in0.0 mm 0.00 in0.0 mm 0.00 in0.0 mm
03:10 AM 39.4°F4.1°C 37.3°F2.9°C 92% 1.6 mph ESE2.6 kmh ESE 2.2 mph3.5 kmh 30.35 in1027.8 mb 0.00 in0.0 mm 0.00 in0.0 mm 0.00 in0.0 mm
03:15 AM 39.6°F4.2°C 37.4°F3.0°C 92% 0.7 mph E1.1 kmh E 2.2 mph3.5 kmh 30.35 in1027.8 mb 0.00 in0.0 mm 0.00 in0.0 mm 0.00 in0.0 mm
03:20 AM 39.7°F4.3°C 37.9°F3.3°C 93% Calm Calm 2.2 mph3.5 kmh 30.35 in1027.8 mb 0.00 in0.0 mm 0.00 in0.0 mm 0.00 in0.0 mm
03:25 AM 39.6°F4.2°C 37.7°F3.2°C 93% 0.7 mph NE1.1 kmh NE 3.1 mph5.0 kmh 30.35 in1027.8 mb 0.00 in0.0 mm 0.00 in0.0 mm 0.00 in0.0 mm
03:30 AM 39.2°F4.0°C 37.1°F2.8°C 92% Calm Calm 3.1 mph5.0 kmh 30.34 in1027.4 mb 0.00 in0.0 mm 0.00 in0.0 mm 0.00 in0.0 mm
03:35 AM 38.8°F3.8°C 37.0°F2.8°C 93% Calm Calm 0.7 mph1.1 kmh 30.34 in1027.4 mb 0.00 in0.0 mm 0.00 in0.0 mm 0.00 in0.0 mm
03:40 AM 38.7°F3.7°C 36.8°F2.7°C 93% Calm Calm -- 30.34 in1027.4 mb 0.00 in0.0 mm 0.00 in0.0 mm 0.00 in0.0 mm
03:50 AM 38.3°F3.5°C 36.7°F2.6°C 94% Calm Calm -- 30.34 in1027.4 mb 0.00 in0.0 mm 0.00 in0.0 mm 0.00 in0.0 mm
03:55 AM 38.1°F3.4°C 36.6°F2.6°C 94% Calm Calm -- 30.34 in1027.4 mb 0.00 in0.0 mm 0.00 in0.0 mm 0.00 in0.0 mm
04:00 AM 38.1°F3.4°C 36.6°F2.6°C 94% 0.7 mph NE1.1 kmh NE 2.2 mph3.5 kmh 30.34 in1027.4 mb 0.00 in0.0 mm 0.00 in0.0 mm 0.00 in0.0 mm
04:05 AM 37.9°F3.3°C 36.6°F2.6°C 95% 0.7 mph NE1.1 kmh NE 2.2 mph3.5 kmh 30.33 in1027.1 mb 0.00 in0.0 mm 0.00 in0.0 mm 0.00 in0.0 mm
04:10 AM 37.8°F3.2°C 36.5°F2.5°C 95% 0.7 mph NNE1.1 kmh NNE 2.2 mph3.5 kmh 30.33 in1027.1 mb 0.00 in0.0 mm 0.00 in0.0 mm 0.00 in0.0 mm
04:15 AM 37.8°F3.2°C 36.5°F2.5°C 95% 0.7 mph N1.1 kmh N 2.2 mph3.5 kmh 30.33 in1027.1 mb 0.00 in0.0 mm 0.00 in0.0 mm 0.00 in0.0 mm
04:20 AM 37.6°F3.1°C 36.3°F2.4°C 95% 0.7 mph N1.1 kmh N 2.2 mph3.5 kmh 30.33 in1027.1 mb 0.00 in0.0 mm 0.00 in0.0 mm 0.00 in0.0 mm
04:25 AM 37.6°F3.1°C 36.3°F2.4°C 95% 1.6 mph ENE2.6 kmh ENE 2.2 mph3.5 kmh 30.33 in1027.1 mb 0.00 in0.0 mm 0.00 in0.0 mm 0.00 in0.0 mm
04:30 AM 37.6°F3.1°C 36.3°F2.4°C 95% 0.7 mph E1.1 kmh E 2.2 mph3.5 kmh 30.33 in1027.1 mb 0.00 in0.0 mm 0.00 in0.0 mm 0.00 in0.0 mm
04:35 AM 37.6°F3.1°C 36.5°F2.5°C 96% Calm Calm 2.2 mph3.5 kmh 30.32 in1026.8 mb 0.00 in0.0 mm 0.00 in0.0 mm 0.00 in0.0 mm
04:40 AM 37.6°F3.1°C 36.5°F2.5°C 96% 0.7 mph NE1.1 kmh NE 1.6 mph2.6 kmh 30.32 in1026.8 mb 0.00 in0.0 mm 0.00 in0.0 mm 0.00 in0.0 mm
04:45 AM 37.8°F3.2°C 36.7°F2.6°C 96% 0.7 mph ESE1.1 kmh ESE 2.2 mph3.5 kmh 30.32 in1026.8 mb 0.00 in0.0 mm 0.00 in0.0 mm 0.00 in0.0 mm
04:50 AM 37.9°F3.3°C 36.9°F2.7°C 96% 1.6 mph SE2.6 kmh SE 2.2 mph3.5 kmh 30.32 in1026.8 mb 0.00 in0.0 mm 0.00 in0.0 mm 0.00 in0.0 mm
04:55 AM 37.9°F3.3°C 36.9°F2.7°C 96% 0.7 mph SSE1.1 kmh SSE 2.2 mph3.5 kmh 30.32 in1026.8 mb 0.00 in0.0 mm 0.00 in0.0 mm 0.00 in0.0 mm
05:00 AM 37.9°F3.3°C 36.9°F2.7°C 96% 0.7 mph SE1.1 kmh SE 2.2 mph3.5 kmh 30.32 in1026.8 mb 0.00 in0.0 mm 0.00 in0.0 mm 0.00 in0.0 mm
05:05 AM 38.1°F3.4°C 37.1°F2.8°C 96% 1.6 mph E2.6 kmh E 3.1 mph5.0 kmh 30.32 in1026.8 mb 0.00 in0.0 mm 0.00 in0.0 mm 0.00 in0.0 mm
05:10 AM 38.3°F3.5°C 37.3°F2.9°C 96% 0.7 mph E1.1 kmh E 3.1 mph5.0 kmh 30.31 in1026.4 mb 0.00 in0.0 mm 0.00 in0.0 mm 0.00 in0.0 mm
05:15 AM 38.3°F3.5°C 37.3°F2.9°C 96% 0.7 mph E1.1 kmh E 2.2 mph3.5 kmh 30.31 in1026.4 mb 0.00 in0.0 mm 0.00 in0.0 mm 0.00 in0.0 mm
05:20 AM 38.1°F3.4°C 37.1°F2.8°C 96% 1.6 mph NE2.6 kmh NE 2.2 mph3.5 kmh 30.31 in1026.4 mb 0.00 in0.0 mm 0.00 in0.0 mm 0.00 in0.0 mm
05:25 AM 37.8°F3.2°C 36.7°F2.6°C 96% Calm Calm 2.2 mph3.5 kmh 30.32 in1026.8 mb 0.00 in0.0 mm 0.00 in0.0 mm 0.00 in0.0 mm
05:30 AM 37.6°F3.1°C 36.5°F2.5°C 96% Calm Calm 2.2 mph3.5 kmh 30.31 in1026.4 mb 0.00 in0.0 mm 0.00 in0.0 mm 0.00 in0.0 mm
05:35 AM 37.4°F3.0°C 36.4°F2.4°C 96% 0.7 mph N1.1 kmh N 1.6 mph2.6 kmh 30.31 in1026.4 mb 0.00 in0.0 mm 0.00 in0.0 mm 0.00 in0.0 mm
05:40 AM 37.0°F2.8°C 34.9°F1.6°C 92% Calm Calm 1.6 mph2.6 kmh 30.31 in1026.4 mb 0.00 in0.0 mm 0.00 in0.0 mm 0.00 in0.0 mm
05:45 AM 36.9°F2.7°C 34.8°F1.6°C 92% Calm Calm 1.6 mph2.6 kmh 30.31 in1026.4 mb 0.00 in0.0 mm 0.00 in0.0 mm 0.00 in0.0 mm
05:50 AM 36.9°F2.7°C 34.8°F1.6°C 92% Calm Calm 1.6 mph2.6 kmh 30.31 in1026.4 mb 0.00 in0.0 mm 0.00 in0.0 mm 0.00 in0.0 mm
05:55 AM 37.0°F2.8°C 34.9°F1.6°C 92% 0.7 mph SE1.1 kmh SE 1.6 mph2.6 kmh 30.31 in1026.4 mb 0.00 in0.0 mm 0.00 in0.0 mm 0.00 in0.0 mm
06:00 AM 37.0°F2.8°C 34.9°F1.6°C 92% 0.7 mph SE1.1 kmh SE 1.6 mph2.6 kmh 30.30 in1026.1 mb 0.00 in0.0 mm 0.00 in0.0 mm 0.00 in0.0 mm
06:05 AM 37.0°F2.8°C 34.9°F1.6°C 92% Calm Calm 1.6 mph2.6 kmh 30.31 in1026.4 mb 0.00 in0.0 mm 0.00 in0.0 mm 0.00 in0.0 mm
06:10 AM 36.9°F2.7°C 35.0°F1.7°C 93% 0.7 mph SE1.1 kmh SE 1.6 mph2.6 kmh 30.30 in1026.1 mb 0.00 in0.0 mm 0.00 in0.0 mm 0.00 in0.0 mm
06:15 AM 36.7°F2.6°C 34.6°F1.4°C 92% 0.7 mph N1.1 kmh N 1.6 mph2.6 kmh 30.30 in1026.1 mb 0.00 in0.0 mm 0.00 in0.0 mm 0.00 in0.0 mm
06:20 AM 36.5°F2.5°C 34.4°F1.3°C 92% 0.7 mph NNE1.1 kmh NNE 1.6 mph2.6 kmh 30.30 in1026.1 mb 0.00 in0.0 mm 0.00 in0.0 mm 0.00 in0.0 mm
06:25 AM 36.5°F2.5°C 34.4°F1.3°C 92% 1.6 mph E2.6 kmh E 2.2 mph3.5 kmh 30.30 in1026.1 mb 0.00 in0.0 mm 0.00 in0.0 mm 0.00 in0.0 mm
06:30 AM 36.3°F2.4°C 34.5°F1.4°C 93% Calm Calm 2.2 mph3.5 kmh 30.31 in1026.4 mb 0.00 in0.0 mm 0.00 in0.0 mm 0.00 in0.0 mm
06:35 AM 36.3°F2.4°C 34.5°F1.4°C 93% Calm Calm 2.2 mph3.5 kmh 30.30 in1026.1 mb 0.00 in0.0 mm 0.00 in0.0 mm 0.00 in0.0 mm
06:40 AM 36.1°F2.3°C 34.3°F1.3°C 93% Calm Calm 1.6 mph2.6 kmh 30.30 in1026.1 mb 0.00 in0.0 mm 0.00 in0.0 mm 0.00 in0.0 mm
06:45 AM 36.3°F2.4°C 34.5°F1.4°C 93% 0.7 mph SE1.1 kmh SE 1.6 mph2.6 kmh 30.30 in1026.1 mb 0.00 in0.0 mm 0.00 in0.0 mm 0.00 in0.0 mm
06:50 AM 36.5°F2.5°C 34.7°F1.5°C 93% 0.7 mph SE1.1 kmh SE 2.2 mph3.5 kmh 30.30 in1026.1 mb 0.00 in0.0 mm 0.00 in0.0 mm 0.00 in0.0 mm
06:55 AM 36.5°F2.5°C 34.7°F1.5°C 93% Calm Calm 2.2 mph3.5 kmh 30.30 in1026.1 mb 0.00 in0.0 mm 0.00 in0.0 mm 0.00 in0.0 mm
07:00 AM 36.1°F2.3°C 34.3°F1.3°C 93% 0.7 mph NE1.1 kmh NE 2.2 mph3.5 kmh 30.30 in1026.1 mb 0.00 in0.0 mm 0.00 in0.0 mm 0.00 in0.0 mm
07:05 AM 36.0°F2.2°C 34.1°F1.2°C 93% Calm Calm 2.2 mph3.5 kmh 30.30 in1026.1 mb 0.00 in0.0 mm 0.00 in0.0 mm 0.00 in0.0 mm
07:10 AM 35.6°F2.0°C 33.8°F1.0°C 93% 0.7 mph NNE1.1 kmh NNE 2.2 mph3.5 kmh 30.30 in1026.1 mb 0.00 in0.0 mm 0.00 in0.0 mm 0.00 in0.0 mm
07:15 AM 35.4°F1.9°C 33.9°F1.1°C 94% Calm Calm 2.2 mph3.5 kmh 30.30 in1026.1 mb 0.00 in0.0 mm 0.00 in0.0 mm 0.00 in0.0 mm
07:20 AM 35.2°F1.8°C 33.7°F0.9°C 94% 1.6 mph NNE2.6 kmh NNE 2.2 mph3.5 kmh 30.30 in1026.1 mb 0.00 in0.0 mm 0.00 in0.0 mm 0.00 in0.0 mm
07:25 AM 35.2°F1.8°C 33.7°F0.9°C 94% 1.6 mph E2.6 kmh E 2.2 mph3.5 kmh 30.30 in1026.1 mb 0.00 in0.0 mm 0.00 in0.0 mm 0.00 in0.0 mm
07:30 AM 35.4°F1.9°C 33.9°F1.1°C 94% 0.7 mph E1.1 kmh E 3.1 mph5.0 kmh 30.30 in1026.1 mb 0.00 in0.0 mm 0.00 in0.0 mm 0.00 in0.0 mm
07:35 AM 35.4°F1.9°C 33.9°F1.1°C 94% 0.7 mph E1.1 kmh E 3.1 mph5.0 kmh 30.30 in1026.1 mb 0.00 in0.0 mm 0.00 in0.0 mm 0.00 in0.0 mm
07:40 AM 35.4°F1.9°C 34.1°F1.2°C 95% Calm Calm 2.2 mph3.5 kmh 30.30 in1026.1 mb 0.00 in0.0 mm 0.00 in0.0 mm 0.00 in0.0 mm
07:45 AM 35.4°F1.9°C 34.1°F1.2°C 95% Calm Calm 2.2 mph3.5 kmh 30.30 in1026.1 mb 0.00 in0.0 mm 0.00 in0.0 mm 0.00 in0.0 mm
07:50 AM 35.1°F1.7°C 33.8°F1.0°C 95% 1.6 mph N2.6 kmh N 1.6 mph2.6 kmh 30.30 in1026.1 mb 0.00 in0.0 mm 0.00 in0.0 mm 0.00 in0.0 mm
07:55 AM 34.9°F1.6°C 33.6°F0.9°C 95% 0.7 mph NNE1.1 kmh NNE 2.2 mph3.5 kmh 30.30 in1026.1 mb 0.00 in0.0 mm 0.00 in0.0 mm 0.00 in0.0 mm
08:00 AM 34.9°F1.6°C 33.6°F0.9°C 95% 0.7 mph NE1.1 kmh NE 2.2 mph3.5 kmh 30.29 in1025.7 mb 0.00 in0.0 mm 0.00 in0.0 mm 0.00 in0.0 mm
08:05 AM 34.9°F1.6°C 33.6°F0.9°C 95% Calm Calm 2.2 mph3.5 kmh 30.30 in1026.1 mb 0.00 in0.0 mm 0.00 in0.0 mm 0.00 in0.0 mm
08:10 AM 34.9°F1.6°C 33.6°F0.9°C 95% 0.7 mph E1.1 kmh E 2.2 mph3.5 kmh 30.30 in1026.1 mb 0.00 in0.0 mm 0.00 in0.0 mm 0.00 in0.0 mm
08:15 AM 35.1°F1.7°C 33.8°F1.0°C 95% 0.7 mph NE1.1 kmh NE 2.2 mph3.5 kmh 30.30 in1026.1 mb 0.00 in0.0 mm 0.00 in0.0 mm 0.00 in0.0 mm
08:20 AM 35.1°F1.7°C 33.8°F1.0°C 95% 0.7 mph N1.1 kmh N 2.2 mph3.5 kmh 30.30 in1026.1 mb 0.00 in0.0 mm 0.00 in0.0 mm 0.00 in0.0 mm
08:25 AM 34.9°F1.6°C 33.6°F0.9°C 95% 1.6 mph N2.6 kmh N 3.1 mph5.0 kmh 30.30 in1026.1 mb 0.00 in0.0 mm 0.00 in0.0 mm 0.00 in0.0 mm
08:30 AM 35.1°F1.7°C 34.0°F1.1°C 96% Calm Calm 3.1 mph5.0 kmh 30.30 in1026.1 mb 0.00 in0.0 mm 0.00 in0.0 mm 0.00 in0.0 mm
08:35 AM 35.2°F1.8°C 34.2°F1.2°C 96% Calm Calm 2.2 mph3.5 kmh 30.30 in1026.1 mb 0.00 in0.0 mm 0.00 in0.0 mm 0.00 in0.0 mm
08:40 AM 36.0°F2.2°C 34.7°F1.5°C 95% Calm Calm 0.7 mph1.1 kmh 30.30 in1026.1 mb 0.00 in0.0 mm 0.00 in0.0 mm 0.00 in0.0 mm
08:45 AM 36.0°F2.2°C 34.7°F1.5°C 95% 0.7 mph NNE1.1 kmh NNE 2.2 mph3.5 kmh 30.30 in1026.1 mb 0.00 in0.0 mm 0.00 in0.0 mm 0.00 in0.0 mm
08:50 AM 36.0°F2.2°C 34.7°F1.5°C 95% Calm Calm 2.2 mph3.5 kmh 30.29 in1025.7 mb 0.00 in0.0 mm 0.00 in0.0 mm 0.00 in0.0 mm
08:55 AM 36.3°F2.4°C 35.3°F1.8°C 96% 1.6 mph E2.6 kmh E 2.2 mph3.5 kmh 30.29 in1025.7 mb 0.00 in0.0 mm 0.00 in0.0 mm 0.00 in0.0 mm
09:00 AM 36.7°F2.6°C 35.7°F2.1°C 96% 1.6 mph ESE2.6 kmh ESE 2.2 mph3.5 kmh 30.29 in1025.7 mb 0.00 in0.0 mm 0.00 in0.0 mm 0.00 in0.0 mm
09:05 AM 37.6°F3.1°C 37.3°F2.9°C 99% Calm Calm 3.1 mph5.0 kmh 30.30 in1026.1 mb 0.00 in0.0 mm 0.00 in0.0 mm 0.00 in0.0 mm
09:10 AM 38.7°F3.7°C 38.4°F3.6°C 99% Calm Calm 3.1 mph5.0 kmh 30.29 in1025.7 mb 0.00 in0.0 mm 0.00 in0.0 mm 0.00 in0.0 mm
09:15 AM 40.1°F4.5°C 39.8°F4.3°C 99% Calm Calm 1.6 mph2.6 kmh 30.30 in1026.1 mb 0.00 in0.0 mm 0.00 in0.0 mm 0.00 in0.0 mm
09:20 AM 41.2°F5.1°C 40.4°F4.7°C 97% Calm Calm 0.7 mph1.1 kmh 30.30 in1026.1 mb 0.00 in0.0 mm 0.00 in0.0 mm 0.00 in0.0 mm
09:25 AM 42.1°F5.6°C 41.0°F5.0°C 96% Calm Calm 0.7 mph1.1 kmh 30.30 in1026.1 mb 0.00 in0.0 mm 0.00 in0.0 mm 0.00 in0.0 mm
09:30 AM 43.0°F6.1°C 41.4°F5.2°C 94% Calm Calm 0.7 mph1.1 kmh 30.29 in1025.7 mb 0.00 in0.0 mm 0.00 in0.0 mm 0.00 in0.0 mm
09:35 AM 44.1°F6.7°C 42.2°F5.7°C 93% 1.6 mph ESE2.6 kmh ESE 2.2 mph3.5 kmh 30.29 in1025.7 mb 0.00 in0.0 mm 0.00 in0.0 mm 0.00 in0.0 mm
09:40 AM 44.8°F7.1°C 41.7°F5.4°C 89% 0.7 mph SE1.1 kmh SE 2.2 mph3.5 kmh 30.29 in1025.7 mb 0.00 in0.0 mm 0.00 in0.0 mm 0.00 in0.0 mm
09:45 AM 45.1°F7.3°C 41.2°F5.1°C 86% 2.2 mph SSE3.5 kmh SSE 4.5 mph7.2 kmh 30.29 in1025.7 mb 0.00 in0.0 mm 0.00 in0.0 mm 0.00 in0.0 mm
09:50 AM 45.7°F7.6°C 41.1°F5.1°C 84% 2.2 mph S3.5 kmh S 4.5 mph7.2 kmh 30.29 in1025.7 mb 0.00 in0.0 mm 0.00 in0.0 mm 0.00 in0.0 mm
09:55 AM 46.0°F7.8°C 40.9°F4.9°C 82% 3.1 mph S5.0 kmh S 4.5 mph7.2 kmh 30.29 in1025.7 mb 0.00 in0.0 mm 0.00 in0.0 mm 0.00 in0.0 mm
10:00 AM 46.0°F7.8°C 40.9°F4.9°C 82% 1.6 mph S2.6 kmh S 4.5 mph7.2 kmh 30.28 in1025.4 mb 0.00 in0.0 mm 0.00 in0.0 mm 0.00 in0.0 mm
10:05 AM 46.9°F8.3°C 41.4°F5.2°C 81% 0.7 mph SW1.1 kmh SW 4.5 mph7.2 kmh 30.28 in1025.4 mb 0.00 in0.0 mm 0.00 in0.0 mm 0.00 in0.0 mm
10:10 AM 47.1°F8.4°C 41.3°F5.2°C 80% 2.2 mph WSW3.5 kmh WSW 3.8 mph6.1 kmh 30.29 in1025.7 mb 0.00 in0.0 mm 0.00 in0.0 mm 0.00 in0.0 mm
10:15 AM 47.3°F8.5°C 41.4°F5.2°C 80% 0.7 mph W1.1 kmh W 3.8 mph6.1 kmh 30.28 in1025.4 mb 0.00 in0.0 mm 0.00 in0.0 mm 0.00 in0.0 mm
10:20 AM 47.8°F8.8°C 41.6°F5.3°C 79% Calm Calm 3.1 mph5.0 kmh 30.28 in1025.4 mb 0.00 in0.0 mm 0.00 in0.0 mm 0.00 in0.0 mm
10:25 AM 48.6°F9.2°C 41.7°F5.4°C 77% 0.7 mph NE1.1 kmh NE 2.2 mph3.5 kmh 30.29 in1025.7 mb 0.00 in0.0 mm 0.00 in0.0 mm 0.00 in0.0 mm
10:30 AM 49.3°F9.6°C 42.0°F5.6°C 76% 1.6 mph NW2.6 kmh NW 3.1 mph5.0 kmh 30.28 in1025.4 mb 0.00 in0.0 mm 0.00 in0.0 mm 0.00 in0.0 mm
10:35 AM 49.3°F9.6°C 41.7°F5.4°C 75% 1.6 mph W2.6 kmh W 3.1 mph5.0 kmh 30.28 in1025.4 mb 0.00 in0.0 mm 0.00 in0.0 mm 0.00 in0.0 mm
10:40 AM 49.6°F9.8°C 42.0°F5.6°C 75% 1.6 mph WSW2.6 kmh WSW 3.1 mph5.0 kmh 30.28 in1025.4 mb 0.00 in0.0 mm 0.00 in0.0 mm 0.00 in0.0 mm
10:45 AM 49.8°F9.9°C 42.2°F5.7°C 75% 3.1 mph SW5.0 kmh SW 4.5 mph7.2 kmh 30.28 in1025.4 mb 0.00 in0.0 mm 0.00 in0.0 mm 0.00 in0.0 mm
10:50 AM 50.2°F10.1°C 42.2°F5.7°C 74% 2.2 mph S3.5 kmh S 4.5 mph7.2 kmh 30.28 in1025.4 mb 0.00 in0.0 mm 0.00 in0.0 mm 0.00 in0.0 mm
10:55 AM 50.5°F10.3°C 42.2°F5.7°C 73% 2.2 mph S3.5 kmh S 4.5 mph7.2 kmh 30.28 in1025.4 mb 0.00 in0.0 mm 0.00 in0.0 mm 0.00 in0.0 mm
11:00 AM 50.5°F10.3°C 41.9°F5.5°C 72% 0.7 mph S1.1 kmh S 4.5 mph7.2 kmh 30.27 in1025.1 mb 0.00 in0.0 mm 0.00 in0.0 mm 0.00 in0.0 mm
11:05 AM 50.9°F10.5°C 42.6°F5.9°C 73% 1.6 mph SSW2.6 kmh SSW 4.5 mph7.2 kmh 30.27 in1025.1 mb 0.00 in0.0 mm 0.00 in0.0 mm 0.00 in0.0 mm
11:10 AM 50.9°F10.5°C 42.6°F5.9°C 73% 1.6 mph S2.6 kmh S 4.5 mph7.2 kmh 30.27 in1025.1 mb 0.00 in0.0 mm 0.00 in0.0 mm 0.00 in0.0 mm
11:15 AM 51.3°F10.7°C 42.9°F6.1°C 73% Calm Calm 4.5 mph7.2 kmh 30.27 in1025.1 mb 0.00 in0.0 mm 0.00 in0.0 mm 0.00 in0.0 mm
11:20 AM 51.6°F10.9°C 42.9°F6.1°C 72% 0.7 mph ENE1.1 kmh ENE 3.8 mph6.1 kmh 30.26 in1024.7 mb 0.00 in0.0 mm 0.00 in0.0 mm 0.00 in0.0 mm
11:25 AM 52.0°F11.1°C 42.9°F6.1°C 71% 0.7 mph ENE1.1 kmh ENE 3.8 mph6.1 kmh 30.26 in1024.7 mb 0.00 in0.0 mm 0.00 in0.0 mm 0.00 in0.0 mm
11:30 AM 52.5°F11.4°C 43.0°F6.1°C 70% 1.6 mph W2.6 kmh W 2.2 mph3.5 kmh 30.26 in1024.7 mb 0.00 in0.0 mm 0.00 in0.0 mm 0.00 in0.0 mm
11:35 AM 53.1°F11.7°C 43.2°F6.2°C 69% 2.2 mph WNW3.5 kmh WNW 3.8 mph6.1 kmh 30.25 in1024.4 mb 0.00 in0.0 mm 0.00 in0.0 mm 0.00 in0.0 mm
11:40 AM 53.6°F12.0°C 43.3°F6.3°C 68% 0.7 mph NW1.1 kmh NW 3.8 mph6.1 kmh 30.25 in1024.4 mb 0.00 in0.0 mm 0.00 in0.0 mm 0.00 in0.0 mm
11:45 AM 54.1°F12.3°C 43.0°F6.1°C 66% 2.2 mph N3.5 kmh N 3.8 mph6.1 kmh 30.25 in1024.4 mb 0.00 in0.0 mm 0.00 in0.0 mm 0.00 in0.0 mm
11:50 AM 54.3°F12.4°C 42.8°F6.0°C 65% 0.7 mph E1.1 kmh E 3.8 mph6.1 kmh 30.25 in1024.4 mb 0.00 in0.0 mm 0.00 in0.0 mm 0.00 in0.0 mm
11:55 AM 54.7°F12.6°C 43.6°F6.4°C 66% 2.2 mph NW3.5 kmh NW 3.8 mph6.1 kmh 30.24 in1024.0 mb 0.00 in0.0 mm 0.00 in0.0 mm 0.00 in0.0 mm
12:00 PM 54.7°F12.6°C 43.2°F6.2°C 65% 2.2 mph W3.5 kmh W 4.5 mph7.2 kmh 30.24 in1024.0 mb 0.00 in0.0 mm 0.00 in0.0 mm 0.00 in0.0 mm
12:05 PM 55.2°F12.9°C 44.1°F6.7°C 66% 3.1 mph W5.0 kmh W 4.5 mph7.2 kmh 30.24 in1024.0 mb 0.00 in0.0 mm 0.00 in0.0 mm 0.00 in0.0 mm
12:10 PM 55.8°F13.2°C 44.6°F7.0°C 66% 1.6 mph WNW2.6 kmh WNW 4.5 mph7.2 kmh 30.24 in1024.0 mb 0.00 in0.0 mm 0.00 in0.0 mm 0.00 in0.0 mm
12:15 PM 56.1°F13.4°C 44.5°F6.9°C 65% 3.1 mph NW5.0 kmh NW 4.5 mph7.2 kmh 30.24 in1024.0 mb 0.00 in0.0 mm 0.00 in0.0 mm 0.00 in0.0 mm
12:20 PM 56.8°F13.8°C 45.6°F7.6°C 66% 2.2 mph NW3.5 kmh NW 6.0 mph9.7 kmh 30.24 in1024.0 mb 0.00 in0.0 mm 0.00 in0.0 mm 0.00 in0.0 mm
12:25 PM 57.0°F13.9°C 45.0°F7.2°C 64% 1.6 mph WNW2.6 kmh WNW 6.0 mph9.7 kmh 30.24 in1024.0 mb 0.00 in0.0 mm 0.00 in0.0 mm 0.00 in0.0 mm
12:30 PM 56.8°F13.8°C 44.4°F6.9°C 63% Calm Calm 5.4 mph8.7 kmh 30.23 in1023.7 mb 0.00 in0.0 mm 0.00 in0.0 mm 0.00 in0.0 mm
12:35 PM 57.2°F14.0°C 44.3°F6.8°C 62% 1.6 mph SW2.6 kmh SW 5.4 mph8.7 kmh 30.23 in1023.7 mb 0.00 in0.0 mm 0.00 in0.0 mm 0.00 in0.0 mm
12:40 PM 57.7°F14.3°C 44.8°F7.1°C 62% 1.6 mph SSW2.6 kmh SSW 3.1 mph5.0 kmh 30.23 in1023.7 mb 0.00 in0.0 mm 0.00 in0.0 mm 0.00 in0.0 mm
12:45 PM 59.0°F15.0°C 45.6°F7.6°C 61% 2.2 mph WSW3.5 kmh WSW 4.5 mph7.2 kmh 30.23 in1023.7 mb 0.00 in0.0 mm 0.00 in0.0 mm 0.00 in0.0 mm
12:50 PM 59.2°F15.1°C 44.4°F6.9°C 58% 0.7 mph WNW1.1 kmh WNW 4.5 mph7.2 kmh 30.23 in1023.7 mb 0.00 in0.0 mm 0.00 in0.0 mm 0.00 in0.0 mm
12:55 PM 59.5°F15.3°C 43.8°F6.6°C 56% Calm Calm 4.5 mph7.2 kmh 30.23 in1023.7 mb 0.00 in0.0 mm 0.00 in0.0 mm 0.00 in0.0 mm
01:00 PM 60.3°F15.7°C 46.3°F7.9°C 60% 3.1 mph WNW5.0 kmh WNW 6.9 mph11.1 kmh 30.23 in1023.7 mb 0.00 in0.0 mm 0.00 in0.0 mm 0.00 in0.0 mm
01:05 PM 61.0°F16.1°C 44.7°F7.1°C 55% 3.1 mph NW5.0 kmh NW 6.9 mph11.1 kmh 30.23 in1023.7 mb 0.00 in0.0 mm 0.00 in0.0 mm 0.00 in0.0 mm
01:10 PM 61.2°F16.2°C 44.9°F7.2°C 55% 3.1 mph NW5.0 kmh NW 6.0 mph9.7 kmh 30.23 in1023.7 mb 0.00 in0.0 mm 0.00 in0.0 mm 0.00 in0.0 mm
01:15 PM 61.5°F16.4°C 45.7°F7.6°C 56% 4.5 mph NW7.2 kmh NW 7.6 mph12.2 kmh 30.23 in1023.7 mb 0.00 in0.0 mm 0.00 in0.0 mm 0.00 in0.0 mm
01:20 PM 61.5°F16.4°C 44.7°F7.1°C 54% 1.6 mph NW2.6 kmh NW 7.6 mph12.2 kmh 30.22 in1023.4 mb 0.00 in0.0 mm 0.00 in0.0 mm 0.00 in0.0 mm
01:25 PM 61.7°F16.5°C 44.9°F7.2°C 54% 2.2 mph WNW3.5 kmh WNW 6.0 mph9.7 kmh 30.22 in1023.4 mb 0.00 in0.0 mm 0.00 in0.0 mm 0.00 in0.0 mm
01:30 PM 62.1°F16.7°C 44.7°F7.1°C 53% 2.2 mph WNW3.5 kmh WNW 5.4 mph8.7 kmh 30.23 in1023.7 mb 0.00 in0.0 mm 0.00 in0.0 mm 0.00 in0.0 mm
01:35 PM 62.8°F17.1°C 45.4°F7.4°C 53% 1.6 mph NW2.6 kmh NW 5.4 mph8.7 kmh 30.23 in1023.7 mb 0.00 in0.0 mm 0.00 in0.0 mm 0.00 in0.0 mm
01:40 PM 63.0°F17.2°C 45.1°F7.3°C 52% 3.1 mph WNW5.0 kmh WNW 6.9 mph11.1 kmh 30.23 in1023.7 mb 0.00 in0.0 mm 0.00 in0.0 mm 0.00 in0.0 mm
01:45 PM 63.7°F17.6°C 45.7°F7.6°C 52% 11.4 mph WNW18.3 kmh WNW 14.5 mph23.3 kmh 30.22 in1023.4 mb 0.00 in0.0 mm 0.00 in0.0 mm 0.00 in0.0 mm
01:50 PM 64.2°F17.9°C 44.1°F6.7°C 48% 11.4 mph NW18.3 kmh NW 22.1 mph35.6 kmh 30.22 in1023.4 mb 0.00 in0.0 mm 0.00 in0.0 mm 0.00 in0.0 mm
01:55 PM 64.0°F17.8°C 42.9°F6.1°C 46% 15.9 mph NW25.6 kmh NW 25.9 mph41.7 kmh 30.22 in1023.4 mb 0.00 in0.0 mm 0.00 in0.0 mm 0.00 in0.0 mm
02:00 PM 63.7°F17.6°C 41.4°F5.2°C 44% 17.4 mph NW28.0 kmh NW 25.9 mph41.7 kmh 30.23 in1023.7 mb 0.00 in0.0 mm 0.00 in0.0 mm 0.00 in0.0 mm
02:05 PM 63.9°F17.7°C 42.7°F5.9°C 46% 15.2 mph NW24.5 kmh NW 25.9 mph41.7 kmh 30.22 in1023.4 mb 0.00 in0.0 mm 0.00 in0.0 mm 0.00 in0.0 mm
02:10 PM 64.0°F17.8°C 42.9°F6.1°C 46% 13.0 mph NW20.9 kmh NW 23.5 mph37.8 kmh 30.23 in1023.7 mb 0.00 in0.0 mm 0.00 in0.0 mm 0.00 in0.0 mm
02:15 PM 63.3°F17.4°C 43.3°F6.3°C 48% 13.0 mph NW20.9 kmh NW 22.8 mph36.7 kmh 30.23 in1023.7 mb 0.00 in0.0 mm 0.00 in0.0 mm 0.00 in0.0 mm
02:20 PM 62.6°F17.0°C 43.7°F6.5°C 50% 16.8 mph NW27.0 kmh NW 22.1 mph35.6 kmh 30.23 in1023.7 mb 0.00 in0.0 mm 0.00 in0.0 mm 0.00 in0.0 mm
02:25 PM 62.2°F16.8°C 44.9°F7.2°C 53% 14.5 mph NW23.3 kmh NW 25.1 mph40.4 kmh 30.24 in1024.0 mb 0.00 in0.0 mm 0.00 in0.0 mm 0.00 in0.0 mm
02:30 PM 61.7°F16.5°C 43.9°F6.6°C 52% 11.4 mph WNW18.3 kmh WNW 25.1 mph40.4 kmh 30.24 in1024.0 mb 0.00 in0.0 mm 0.00 in0.0 mm 0.00 in0.0 mm
02:35 PM 61.0°F16.1°C 43.7°F6.5°C 53% 15.2 mph NW24.5 kmh NW 25.1 mph40.4 kmh 30.24 in1024.0 mb 0.00 in0.0 mm 0.00 in0.0 mm 0.00 in0.0 mm
02:40 PM 60.8°F16.0°C 43.6°F6.4°C 53% 15.2 mph NW24.5 kmh NW 25.9 mph41.7 kmh 30.24 in1024.0 mb 0.00 in0.0 mm 0.00 in0.0 mm 0.00 in0.0 mm
02:45 PM 60.6°F15.9°C 44.4°F6.9°C 55% 9.8 mph WNW15.8 kmh WNW 25.9 mph41.7 kmh 30.24 in1024.0 mb 0.00 in0.0 mm 0.00 in0.0 mm 0.00 in0.0 mm
02:50 PM 60.6°F15.9°C 44.9°F7.2°C 56% 8.3 mph NW13.4 kmh NW 20.6 mph33.2 kmh 30.24 in1024.0 mb 0.00 in0.0 mm 0.00 in0.0 mm 0.00 in0.0 mm
02:55 PM 60.8°F16.0°C 44.5°F6.9°C 55% 13.0 mph NW20.9 kmh NW 21.3 mph34.3 kmh 30.24 in1024.0 mb 0.00 in0.0 mm 0.00 in0.0 mm 0.00 in0.0 mm
03:00 PM 60.6°F15.9°C 44.4°F6.9°C 55% 9.8 mph NW15.8 kmh NW 21.3 mph34.3 kmh 30.24 in1024.0 mb 0.00 in0.0 mm 0.00 in0.0 mm 0.00 in0.0 mm
03:05 PM 59.7°F15.4°C 43.5°F6.4°C 55% 9.8 mph NW15.8 kmh NW 22.1 mph35.6 kmh 30.24 in1024.0 mb 0.00 in0.0 mm 0.00 in0.0 mm 0.00 in0.0 mm
03:10 PM 59.7°F15.4°C 44.0°F6.7°C 56% 11.4 mph WNW18.3 kmh WNW 22.1 mph35.6 kmh 30.24 in1024.0 mb 0.00 in0.0 mm 0.00 in0.0 mm 0.00 in0.0 mm
03:15 PM 60.1°F15.6°C 44.3°F6.8°C 56% 11.4 mph WNW18.3 kmh WNW 19.7 mph31.7 kmh 30.24 in1024.0 mb 0.00 in0.0 mm 0.00 in0.0 mm 0.00 in0.0 mm
03:20 PM 59.7°F15.4°C 44.0°F6.7°C 56% 9.8 mph NW15.8 kmh NW 19.7 mph31.7 kmh 30.24 in1024.0 mb 0.00 in0.0 mm 0.00 in0.0 mm 0.00 in0.0 mm
03:25 PM 59.5°F15.3°C 44.3°F6.8°C 57% 9.8 mph WNW15.8 kmh WNW 19.7 mph31.7 kmh 30.24 in1024.0 mb 0.00 in0.0 mm 0.00 in0.0 mm 0.00 in0.0 mm
03:30 PM 59.9°F15.5°C 44.6°F7.0°C 57% 7.6 mph W12.2 kmh W 19.7 mph31.7 kmh 30.24 in1024.0 mb 0.00 in0.0 mm 0.00 in0.0 mm 0.00 in0.0 mm
03:35 PM 59.9°F15.5°C 44.6°F7.0°C 57% 9.8 mph WNW15.8 kmh WNW 15.9 mph25.6 kmh 30.23 in1023.7 mb 0.00 in0.0 mm 0.00 in0.0 mm 0.00 in0.0 mm
03:40 PM 59.5°F15.3°C 43.8°F6.6°C 56% 13.0 mph NW20.9 kmh NW 19.0 mph30.6 kmh 30.24 in1024.0 mb 0.00 in0.0 mm 0.00 in0.0 mm 0.00 in0.0 mm
03:45 PM 59.4°F15.2°C 44.1°F6.7°C 57% 7.6 mph NW12.2 kmh NW 19.0 mph30.6 kmh 30.23 in1023.7 mb 0.00 in0.0 mm 0.00 in0.0 mm 0.00 in0.0 mm
03:50 PM 60.1°F15.6°C 44.8°F7.1°C 57% 9.2 mph WNW14.8 kmh WNW 15.9 mph25.6 kmh 30.23 in1023.7 mb 0.00 in0.0 mm 0.00 in0.0 mm 0.00 in0.0 mm
03:55 PM 60.3°F15.7°C 44.5°F6.9°C 56% 9.2 mph W14.8 kmh W 13.6 mph21.9 kmh 30.24 in1024.0 mb 0.00 in0.0 mm 0.00 in0.0 mm 0.00 in0.0 mm
04:00 PM 60.1°F15.6°C 43.9°F6.6°C 55% 7.6 mph W12.2 kmh W 13.6 mph21.9 kmh 30.23 in1023.7 mb 0.00 in0.0 mm 0.00 in0.0 mm 0.00 in0.0 mm
04:05 PM 59.7°F15.4°C 44.0°F6.7°C 56% 6.0 mph W9.7 kmh W 13.0 mph20.9 kmh 30.23 in1023.7 mb 0.00 in0.0 mm 0.00 in0.0 mm 0.00 in0.0 mm
04:10 PM 59.7°F15.4°C 44.0°F6.7°C 56% 8.3 mph W13.4 kmh W 17.4 mph28.0 kmh 30.23 in1023.7 mb 0.00 in0.0 mm 0.00 in0.0 mm 0.00 in0.0 mm
04:15 PM 60.1°F15.6°C 43.9°F6.6°C 55% 9.8 mph WNW15.8 kmh WNW 20.6 mph33.2 kmh 30.23 in1023.7 mb 0.00 in0.0 mm 0.00 in0.0 mm 0.00 in0.0 mm
04:20 PM 60.6°F15.9°C 44.4°F6.9°C 55% 8.3 mph W13.4 kmh W 20.6 mph33.2 kmh 30.23 in1023.7 mb 0.00 in0.0 mm 0.00 in0.0 mm 0.00 in0.0 mm
04:25 PM 60.8°F16.0°C 44.1°F6.7°C 54% 6.0 mph W9.7 kmh W 17.4 mph28.0 kmh 30.23 in1023.7 mb 0.00 in0.0 mm 0.00 in0.0 mm 0.00 in0.0 mm
04:30 PM 60.8°F16.0°C 44.1°F6.7°C 54% 6.0 mph WNW9.7 kmh WNW 19.0 mph30.6 kmh 30.23 in1023.7 mb 0.00 in0.0 mm 0.00 in0.0 mm 0.00 in0.0 mm
04:35 PM 60.3°F15.7°C 43.6°F6.4°C 54% 11.4 mph W18.3 kmh W 19.0 mph30.6 kmh 30.23 in1023.7 mb 0.00 in0.0 mm 0.00 in0.0 mm 0.00 in0.0 mm
04:40 PM 59.7°F15.4°C 43.1°F6.2°C 54% 6.0 mph W9.7 kmh W 17.4 mph28.0 kmh 30.23 in1023.7 mb 0.00 in0.0 mm 0.00 in0.0 mm 0.00 in0.0 mm
04:45 PM 59.9°F15.5°C 44.2°F6.8°C 56% 7.6 mph W12.2 kmh W 15.9 mph25.6 kmh 30.22 in1023.4 mb 0.00 in0.0 mm 0.00 in0.0 mm 0.00 in0.0 mm
04:50 PM 60.1°F15.6°C 44.3°F6.8°C 56% 7.6 mph W12.2 kmh W 15.2 mph24.5 kmh 30.22 in1023.4 mb 0.00 in0.0 mm 0.00 in0.0 mm 0.00 in0.0 mm
04:55 PM 60.1°F15.6°C 43.9°F6.6°C 55% 5.4 mph W8.7 kmh W 13.0 mph20.9 kmh 30.22 in1023.4 mb 0.00 in0.0 mm 0.00 in0.0 mm 0.00 in0.0 mm
05:00 PM 59.9°F15.5°C 44.2°F6.8°C 56% 9.2 mph W14.8 kmh W 13.0 mph20.9 kmh 30.22 in1023.4 mb 0.00 in0.0 mm 0.00 in0.0 mm 0.00 in0.0 mm
05:05 PM 59.5°F15.3°C 43.4°F6.3°C 55% 7.6 mph WNW12.2 kmh WNW 14.5 mph23.3 kmh 30.22 in1023.4 mb 0.00 in0.0 mm 0.00 in0.0 mm 0.00 in0.0 mm
05:10 PM 59.4°F15.2°C 43.7°F6.5°C 56% 6.0 mph WNW9.7 kmh WNW 14.5 mph23.3 kmh 30.22 in1023.4 mb 0.00 in0.0 mm 0.00 in0.0 mm 0.00 in0.0 mm
05:15 PM 59.2°F15.1°C 44.0°F6.7°C 57% 5.4 mph W8.7 kmh W 13.0 mph20.9 kmh 30.22 in1023.4 mb 0.00 in0.0 mm 0.00 in0.0 mm 0.00 in0.0 mm
05:20 PM 59.0°F15.0°C 44.3°F6.8°C 58% 6.9 mph W11.1 kmh W 12.1 mph19.5 kmh 30.22 in1023.4 mb 0.00 in0.0 mm 0.00 in0.0 mm 0.00 in0.0 mm
05:25 PM 59.0°F15.0°C 44.3°F6.8°C 58% 6.9 mph WSW11.1 kmh WSW 12.1 mph19.5 kmh 30.22 in1023.4 mb 0.00 in0.0 mm 0.00 in0.0 mm 0.00 in0.0 mm
05:30 PM 58.8°F14.9°C 44.1°F6.7°C 58% 5.4 mph WSW8.7 kmh WSW 16.8 mph27.0 kmh 30.22 in1023.4 mb 0.00 in0.0 mm 0.00 in0.0 mm 0.00 in0.0 mm
05:35 PM 58.6°F14.8°C 44.4°F6.9°C 59% 5.4 mph WSW8.7 kmh WSW 16.8 mph27.0 kmh 30.22 in1023.4 mb 0.00 in0.0 mm 0.00 in0.0 mm 0.00 in0.0 mm
05:40 PM 59.0°F15.0°C 44.7°F7.1°C 59% 7.6 mph W12.2 kmh W 13.0 mph20.9 kmh 30.22 in1023.4 mb 0.00 in0.0 mm 0.00 in0.0 mm 0.00 in0.0 mm
05:45 PM 58.8°F14.9°C 45.0°F7.2°C 60% 5.4 mph WSW8.7 kmh WSW 14.5 mph23.3 kmh 30.21 in1023.0 mb 0.00 in0.0 mm 0.00 in0.0 mm 0.00 in0.0 mm
05:50 PM 58.8°F14.9°C 45.4°F7.4°C 61% 5.4 mph W8.7 kmh W 14.5 mph23.3 kmh 30.22 in1023.4 mb 0.00 in0.0 mm 0.00 in0.0 mm 0.00 in0.0 mm
05:55 PM 58.6°F14.8°C 44.8°F7.1°C 60% 6.9 mph W11.1 kmh W 14.5 mph23.3 kmh 30.22 in1023.4 mb 0.00 in0.0 mm 0.00 in0.0 mm 0.00 in0.0 mm
06:00 PM 58.5°F14.7°C 45.1°F7.3°C 61% 6.0 mph W9.7 kmh W 14.5 mph23.3 kmh 30.22 in1023.4 mb 0.00 in0.0 mm 0.00 in0.0 mm 0.00 in0.0 mm
06:05 PM 58.1°F14.5°C 44.7°F7.1°C 61% 6.9 mph W11.1 kmh W 13.6 mph21.9 kmh 30.22 in1023.4 mb 0.00 in0.0 mm 0.00 in0.0 mm 0.00 in0.0 mm
06:10 PM 57.9°F14.4°C 44.6°F7.0°C 61% 7.6 mph WSW12.2 kmh WSW 13.0 mph20.9 kmh 30.22 in1023.4 mb 0.00 in0.0 mm 0.00 in0.0 mm 0.00 in0.0 mm
06:15 PM 57.7°F14.3°C 44.8°F7.1°C 62% 10.7 mph W17.2 kmh W 15.2 mph24.5 kmh 30.22 in1023.4 mb 0.00 in0.0 mm 0.00 in0.0 mm 0.00 in0.0 mm
06:20 PM 57.7°F14.3°C 45.2°F7.3°C 63% 5.4 mph W8.7 kmh W 15.2 mph24.5 kmh 30.22 in1023.4 mb 0.00 in0.0 mm 0.00 in0.0 mm 0.00 in0.0 mm
06:25 PM 58.1°F14.5°C 45.6°F7.6°C 63% 8.3 mph W13.4 kmh W 15.2 mph24.5 kmh 30.22 in1023.4 mb 0.00 in0.0 mm 0.00 in0.0 mm 0.00 in0.0 mm
06:30 PM 58.1°F14.5°C 45.6°F7.6°C 63% 6.9 mph WNW11.1 kmh WNW 13.0 mph20.9 kmh 30.22 in1023.4 mb 0.00 in0.0 mm 0.00 in0.0 mm 0.00 in0.0 mm
06:35 PM 57.7°F14.3°C 45.2°F7.3°C 63% 6.9 mph WNW11.1 kmh WNW 13.0 mph20.9 kmh 30.22 in1023.4 mb 0.00 in0.0 mm 0.00 in0.0 mm 0.00 in0.0 mm
06:40 PM 57.4°F14.1°C 45.3°F7.4°C 64% 6.0 mph WNW9.7 kmh WNW 13.0 mph20.9 kmh 30.22 in1023.4 mb 0.00 in0.0 mm 0.00 in0.0 mm 0.00 in0.0 mm
06:45 PM 57.2°F14.0°C 45.1°F7.3°C 64% 7.6 mph WNW12.2 kmh WNW 14.5 mph23.3 kmh 30.22 in1023.4 mb 0.00 in0.0 mm 0.00 in0.0 mm 0.00 in0.0 mm
06:50 PM 56.8°F13.8°C 45.6°F7.6°C 66% 3.8 mph W6.1 kmh W 14.5 mph23.3 kmh 30.22 in1023.4 mb 0.00 in0.0 mm 0.00 in0.0 mm 0.00 in0.0 mm
06:55 PM 56.7°F13.7°C 45.4°F7.4°C 66% 6.9 mph W11.1 kmh W 15.9 mph25.6 kmh 30.22 in1023.4 mb 0.00 in0.0 mm 0.00 in0.0 mm 0.00 in0.0 mm
07:00 PM 56.5°F13.6°C 45.3°F7.4°C 66% 8.3 mph W13.4 kmh W 15.9 mph25.6 kmh 30.22 in1023.4 mb 0.00 in0.0 mm 0.00 in0.0 mm 0.00 in0.0 mm
07:05 PM 56.3°F13.5°C 45.5°F7.5°C 67% 5.4 mph WSW8.7 kmh WSW 11.4 mph18.3 kmh 30.21 in1023.0 mb 0.00 in0.0 mm 0.00 in0.0 mm 0.00 in0.0 mm
07:10 PM 56.1°F13.4°C 45.3°F7.4°C 67% 5.4 mph WSW8.7 kmh WSW 11.4 mph18.3 kmh 30.21 in1023.0 mb 0.00 in0.0 mm 0.00 in0.0 mm 0.00 in0.0 mm
07:15 PM 55.9°F13.3°C 45.5°F7.5°C 68% 6.9 mph WSW11.1 kmh WSW 10.7 mph17.2 kmh 30.22 in1023.4 mb 0.00 in0.0 mm 0.00 in0.0 mm 0.00 in0.0 mm
07:20 PM 55.8°F13.2°C 45.4°F7.4°C 68% 6.0 mph WSW9.7 kmh WSW 10.7 mph17.2 kmh 30.22 in1023.4 mb 0.00 in0.0 mm 0.00 in0.0 mm 0.00 in0.0 mm
07:25 PM 55.6°F13.1°C 45.6°F7.6°C 69% 3.8 mph WSW6.1 kmh WSW 12.1 mph19.5 kmh 30.22 in1023.4 mb 0.00 in0.0 mm 0.00 in0.0 mm 0.00 in0.0 mm
07:30 PM 55.6°F13.1°C 45.6°F7.6°C 69% 7.6 mph W12.2 kmh W 12.1 mph19.5 kmh 30.22 in1023.4 mb 0.00 in0.0 mm 0.00 in0.0 mm 0.00 in0.0 mm
07:35 PM 54.5°F12.5°C 46.4°F8.0°C 74% 9.8 mph NW15.8 kmh NW 22.1 mph35.6 kmh 30.23 in1023.7 mb 0.00 in0.0 mm 0.00 in0.0 mm 0.00 in0.0 mm
07:40 PM 52.9°F11.6°C 45.9°F7.7°C 77% 5.4 mph NW8.7 kmh NW 22.1 mph35.6 kmh 30.23 in1023.7 mb 0.00 in0.0 mm 0.00 in0.0 mm 0.00 in0.0 mm
07:45 PM 51.8°F11.0°C 45.8°F7.7°C 80% 8.3 mph NW13.4 kmh NW 15.2 mph24.5 kmh 30.24 in1024.0 mb 0.00 in0.0 mm 0.00 in0.0 mm 0.00 in0.0 mm
07:50 PM 51.1°F10.6°C 46.1°F7.8°C 83% 6.9 mph NW11.1 kmh NW 18.3 mph29.5 kmh 30.24 in1024.0 mb 0.00 in0.0 mm 0.00 in0.0 mm 0.00 in0.0 mm
07:55 PM 50.9°F10.5°C 46.2°F7.9°C 84% 8.3 mph WNW13.4 kmh WNW 18.3 mph29.5 kmh 30.24 in1024.0 mb 0.00 in0.0 mm 0.00 in0.0 mm 0.00 in0.0 mm
08:00 PM 50.5°F10.3°C 45.9°F7.7°C 84% 7.6 mph WNW12.2 kmh WNW 13.6 mph21.9 kmh 30.24 in1024.0 mb 0.00 in0.0 mm 0.00 in0.0 mm 0.00 in0.0 mm
08:05 PM 50.4°F10.2°C 46.0°F7.8°C 85% 6.9 mph NW11.1 kmh NW 13.6 mph21.9 kmh 30.25 in1024.4 mb 0.00 in0.0 mm 0.00 in0.0 mm 0.00 in0.0 mm
08:10 PM 50.2°F10.1°C 45.9°F7.7°C 85% 8.3 mph WNW13.4 kmh WNW 11.4 mph18.3 kmh 30.25 in1024.4 mb 0.00 in0.0 mm 0.00 in0.0 mm 0.00 in0.0 mm
08:15 PM 50.0°F10.0°C 45.4°F7.4°C 84% 7.6 mph NW12.2 kmh NW 13.6 mph21.9 kmh 30.25 in1024.4 mb 0.00 in0.0 mm 0.00 in0.0 mm 0.00 in0.0 mm
08:20 PM 50.0°F10.0°C 45.0°F7.2°C 83% 7.6 mph WNW12.2 kmh WNW 13.6 mph21.9 kmh 30.25 in1024.4 mb 0.00 in0.0 mm 0.00 in0.0 mm 0.00 in0.0 mm
08:25 PM 49.8°F9.9°C 45.2°F7.3°C 84% 7.6 mph W12.2 kmh W 12.1 mph19.5 kmh 30.25 in1024.4 mb 0.00 in0.0 mm 0.00 in0.0 mm 0.00 in0.0 mm
08:30 PM 49.5°F9.7°C 44.5°F6.9°C 83% 4.5 mph W7.2 kmh W 12.1 mph19.5 kmh 30.25 in1024.4 mb 0.00 in0.0 mm 0.00 in0.0 mm 0.00 in0.0 mm
08:35 PM 49.5°F9.7°C 43.9°F6.6°C 81% 4.5 mph NW7.2 kmh NW 12.1 mph19.5 kmh 30.26 in1024.7 mb 0.00 in0.0 mm 0.00 in0.0 mm 0.00 in0.0 mm
08:40 PM 49.3°F9.6°C 43.7°F6.5°C 81% 4.5 mph WNW7.2 kmh WNW 10.7 mph17.2 kmh 30.26 in1024.7 mb 0.00 in0.0 mm 0.00 in0.0 mm 0.00 in0.0 mm
08:45 PM 49.1°F9.5°C 43.2°F6.2°C 80% 6.0 mph W9.7 kmh W 9.8 mph15.8 kmh 30.27 in1025.1 mb 0.00 in0.0 mm 0.00 in0.0 mm 0.00 in0.0 mm
08:50 PM 48.9°F9.4°C 42.7°F5.9°C 79% 6.0 mph WSW9.7 kmh WSW 11.4 mph18.3 kmh 30.27 in1025.1 mb 0.00 in0.0 mm 0.00 in0.0 mm 0.00 in0.0 mm
08:55 PM 48.7°F9.3°C 42.5°F5.8°C 79% 4.5 mph WSW7.2 kmh WSW 11.4 mph18.3 kmh 30.27 in1025.1 mb 0.00 in0.0 mm 0.00 in0.0 mm 0.00 in0.0 mm
09:00 PM 48.4°F9.1°C 42.2°F5.7°C 79% 6.0 mph SW9.7 kmh SW 11.4 mph18.3 kmh 30.27 in1025.1 mb 0.00 in0.0 mm 0.00 in0.0 mm 0.00 in0.0 mm
09:05 PM 48.2°F9.0°C 42.3°F5.7°C 80% 4.5 mph SW7.2 kmh SW 11.4 mph18.3 kmh 30.28 in1025.4 mb 0.00 in0.0 mm 0.00 in0.0 mm 0.00 in0.0 mm
09:10 PM 48.0°F8.9°C 42.5°F5.8°C 81% 6.9 mph WSW11.1 kmh WSW 11.4 mph18.3 kmh 30.28 in1025.4 mb 0.00 in0.0 mm 0.00 in0.0 mm 0.00 in0.0 mm
09:15 PM 47.8°F8.8°C 42.6°F5.9°C 82% 6.9 mph W11.1 kmh W 9.8 mph15.8 kmh 30.28 in1025.4 mb 0.00 in0.0 mm 0.00 in0.0 mm 0.00 in0.0 mm
09:20 PM 47.5°F8.6°C 42.6°F5.9°C 83% 7.6 mph NW12.2 kmh NW 12.1 mph19.5 kmh 30.28 in1025.4 mb 0.00 in0.0 mm 0.00 in0.0 mm 0.00 in0.0 mm
09:25 PM 47.3°F8.5°C 42.4°F5.8°C 83% 6.9 mph W11.1 kmh W 14.5 mph23.3 kmh 30.29 in1025.7 mb 0.00 in0.0 mm 0.00 in0.0 mm 0.00 in0.0 mm
09:30 PM 47.1°F8.4°C 42.2°F5.7°C 83% 5.4 mph W8.7 kmh W 14.5 mph23.3 kmh 30.29 in1025.7 mb 0.00 in0.0 mm 0.00 in0.0 mm 0.00 in0.0 mm
09:35 PM 47.1°F8.4°C 42.2°F5.7°C 83% 7.6 mph WSW12.2 kmh WSW 13.6 mph21.9 kmh 30.29 in1025.7 mb 0.00 in0.0 mm 0.00 in0.0 mm 0.00 in0.0 mm
09:40 PM 46.9°F8.3°C 41.7°F5.4°C 82% 6.0 mph WSW9.7 kmh WSW 14.5 mph23.3 kmh 30.29 in1025.7 mb 0.00 in0.0 mm 0.00 in0.0 mm 0.00 in0.0 mm
09:45 PM 46.9°F8.3°C 41.4°F5.2°C 81% 6.9 mph W11.1 kmh W 14.5 mph23.3 kmh 30.29 in1025.7 mb 0.00 in0.0 mm 0.00 in0.0 mm 0.00 in0.0 mm
09:50 PM 46.9°F8.3°C 41.4°F5.2°C 81% 8.3 mph WNW13.4 kmh WNW 13.0 mph20.9 kmh 30.29 in1025.7 mb 0.00 in0.0 mm 0.00 in0.0 mm 0.00 in0.0 mm
09:55 PM 46.8°F8.2°C 41.2°F5.1°C 81% 5.4 mph WNW8.7 kmh WNW 13.0 mph20.9 kmh 30.30 in1026.1 mb 0.00 in0.0 mm 0.00 in0.0 mm 0.00 in0.0 mm
10:00 PM 46.8°F8.2°C 41.2°F5.1°C 81% 6.0 mph WNW9.7 kmh WNW 13.0 mph20.9 kmh 30.30 in1026.1 mb 0.00 in0.0 mm 0.00 in0.0 mm 0.00 in0.0 mm
10:05 PM 46.8°F8.2°C 41.2°F5.1°C 81% 6.9 mph NW11.1 kmh NW 13.0 mph20.9 kmh 30.30 in1026.1 mb 0.00 in0.0 mm 0.00 in0.0 mm 0.00 in0.0 mm
10:10 PM 46.8°F8.2°C 41.2°F5.1°C 81% 6.9 mph NW11.1 kmh NW 13.0 mph20.9 kmh 30.30 in1026.1 mb 0.00 in0.0 mm 0.00 in0.0 mm 0.00 in0.0 mm
10:15 PM 46.6°F8.1°C 41.1°F5.1°C 81% 10.7 mph NW17.2 kmh NW 17.4 mph28.0 kmh 30.30 in1026.1 mb 0.00 in0.0 mm 0.00 in0.0 mm 0.00 in0.0 mm
10:20 PM 46.8°F8.2°C 41.2°F5.1°C 81% 5.4 mph NW8.7 kmh NW 17.4 mph28.0 kmh 30.30 in1026.1 mb 0.00 in0.0 mm 0.00 in0.0 mm 0.00 in0.0 mm
10:25 PM 46.6°F8.1°C 41.4°F5.2°C 82% 6.9 mph NW11.1 kmh NW 15.2 mph24.5 kmh 30.30 in1026.1 mb 0.00 in0.0 mm 0.00 in0.0 mm 0.00 in0.0 mm
10:30 PM 46.6°F8.1°C 41.4°F5.2°C 82% 10.7 mph NW17.2 kmh NW 15.2 mph24.5 kmh 30.31 in1026.4 mb 0.00 in0.0 mm 0.00 in0.0 mm 0.00 in0.0 mm
10:35 PM 46.6°F8.1°C 41.4°F5.2°C 82% 3.8 mph WNW6.1 kmh WNW 15.2 mph24.5 kmh 30.31 in1026.4 mb 0.00 in0.0 mm 0.00 in0.0 mm 0.00 in0.0 mm
10:40 PM 46.6°F8.1°C 41.4°F5.2°C 82% 3.1 mph WNW5.0 kmh WNW 15.2 mph24.5 kmh 30.32 in1026.8 mb 0.00 in0.0 mm 0.00 in0.0 mm 0.00 in0.0 mm
10:45 PM 46.6°F8.1°C 41.4°F5.2°C 82% 6.9 mph WNW11.1 kmh WNW 12.1 mph19.5 kmh 30.32 in1026.8 mb 0.00 in0.0 mm 0.00 in0.0 mm 0.00 in0.0 mm
10:50 PM 46.4°F8.0°C 41.2°F5.1°C 82% 2.2 mph W3.5 kmh W 12.1 mph19.5 kmh 30.33 in1027.1 mb 0.00 in0.0 mm 0.00 in0.0 mm 0.00 in0.0 mm
10:55 PM 46.4°F8.0°C 41.2°F5.1°C 82% 6.0 mph W9.7 kmh W 11.4 mph18.3 kmh 30.32 in1026.8 mb 0.00 in0.0 mm 0.00 in0.0 mm 0.00 in0.0 mm
11:00 PM 46.4°F8.0°C 41.2°F5.1°C 82% 6.9 mph WNW11.1 kmh WNW 13.0 mph20.9 kmh 30.32 in1026.8 mb 0.00 in0.0 mm 0.00 in0.0 mm 0.00 in0.0 mm
11:05 PM 46.2°F7.9°C 41.0°F5.0°C 82% 6.9 mph W11.1 kmh W 13.0 mph20.9 kmh 30.32 in1026.8 mb 0.00 in0.0 mm 0.00 in0.0 mm 0.00 in0.0 mm
11:10 PM 46.0°F7.8°C 40.9°F4.9°C 82% 2.2 mph WSW3.5 kmh WSW 10.7 mph17.2 kmh 30.32 in1026.8 mb 0.00 in0.0 mm 0.00 in0.0 mm 0.00 in0.0 mm
11:15 PM 45.9°F7.7°C 40.7°F4.8°C 82% 4.5 mph W7.2 kmh W 10.7 mph17.2 kmh 30.32 in1026.8 mb 0.00 in0.0 mm 0.00 in0.0 mm 0.00 in0.0 mm
11:20 PM 45.7°F7.6°C 40.5°F4.7°C 82% 1.6 mph W2.6 kmh W 9.8 mph15.8 kmh 30.32 in1026.8 mb 0.00 in0.0 mm 0.00 in0.0 mm 0.00 in0.0 mm
11:25 PM 45.5°F7.5°C 40.0°F4.4°C 81% 3.8 mph WSW6.1 kmh WSW 9.8 mph15.8 kmh 30.32 in1026.8 mb 0.00 in0.0 mm 0.00 in0.0 mm 0.00 in0.0 mm
11:30 PM 45.3°F7.4°C 39.8°F4.3°C 81% 6.0 mph WSW9.7 kmh WSW 9.8 mph15.8 kmh 30.32 in1026.8 mb 0.00 in0.0 mm 0.00 in0.0 mm 0.00 in0.0 mm
11:35 PM 45.1°F7.3°C 39.7°F4.3°C 81% 5.4 mph WSW8.7 kmh WSW 9.8 mph15.8 kmh 30.32 in1026.8 mb 0.00 in0.0 mm 0.00 in0.0 mm 0.00 in0.0 mm
11:40 PM 45.0°F7.2°C 39.2°F4.0°C 80% 2.2 mph SW3.5 kmh SW 9.8 mph15.8 kmh 30.32 in1026.8 mb 0.00 in0.0 mm 0.00 in0.0 mm 0.00 in0.0 mm
11:45 PM 44.8°F7.1°C 39.0°F3.9°C 80% 3.8 mph SSW6.1 kmh SSW 7.6 mph12.2 kmh 30.33 in1027.1 mb 0.00 in0.0 mm 0.00 in0.0 mm 0.00 in0.0 mm
11:50 PM 44.6°F7.0°C 38.5°F3.6°C 79% 1.6 mph SW2.6 kmh SW 6.0 mph9.7 kmh 30.33 in1027.1 mb 0.00 in0.0 mm 0.00 in0.0 mm 0.00 in0.0 mm
11:55 PM 44.4°F6.9°C 38.6°F3.7°C 80% 4.5 mph WSW7.2 kmh WSW 6.0 mph9.7 kmh 30.34 in1027.4 mb 0.00 in0.0 mm 0.00 in0.0 mm 0.00 in0.0 mm